ΕΜΥ, Εθνική Μετεωρολογική Υπηρεσία - Δελτία Καιρού, Προγνώσεις

ΑΕΡΟΝΑΥΤΙΛΙΑ

GREEK AIRPORTS CODES

LGAD 220650Z 00000KT 8000 -RA FEW020 SCT025 OVC070 10/10 Q1022=

EUROPEAN AIRPORTS CODES

LFPO 220630Z 21015KT 180V240 5000 -DZ BKN007 12/11 Q0996NOSIG=